Time;durP1;ratioP1;P1;durP2;ratioP2;P2;SDS_P1;SDS_P2;PMS_P1;PMS_P2;Temp;Humidity;BMP_temperature;BMP_pressure;BME280_temperature;BME280_humidity;BME280_pressure;Samples;Min_cycle;Max_cycle;Signal;HPM_P1;HPM_P2
2021/11/09 00:01:01;;;;;;;5.32;1.63;;;;;;;;;;5102394;28;20050;-59
2021/11/09 00:03:27;;;;;;;6.18;1.00;;;;;;;;;;5097224;28;20031;-59
2021/11/09 00:05:58;;;;;;;2.90;0.70;;;;;;;;;;5095838;28;20130;-59
2021/11/09 00:08:28;;;;;;;2.55;0.80;;;;;;;;;;5081860;28;20108;-60
2021/11/09 00:10:53;;;;;;;1.45;0.60;;;;;;;;;;5096061;28;20036;-60
2021/11/09 00:13:20;;;;;;;2.38;0.60;;;;;;;;;;5097128;28;20046;-61
2021/11/09 00:15:46;;;;;;;3.83;0.75;;;;;;;;;;5098607;28;20040;-59
2021/11/09 00:18:12;;;;;;;2.15;0.70;;;;;;;;;;5095640;28;20040;-58
2021/11/09 00:20:39;;;;;;;2.25;0.75;;;;;;;;;;5095098;28;20043;-60
2021/11/09 00:23:06;;;;;;;2.28;0.70;;;;;;;;;;5096762;28;20063;-59
2021/11/09 00:25:32;;;;;;;7.85;0.85;;;;;;;;;;5094753;28;20039;-60
2021/11/09 00:27:58;;;;;;;2.88;0.80;;;;;;;;;;5096059;28;20411;-58
2021/11/09 00:30:25;;;;;;;5.75;0.65;;;;;;;;;;5095300;28;20093;-60
2021/11/09 00:32:51;;;;;;;1.70;0.68;;;;;;;;;;5095901;28;20095;-54
2021/11/09 00:35:19;;;;;;;1.75;0.60;;;;;;;;;;5093922;28;20056;-59
2021/11/09 00:37:45;;;;;;;2.17;0.70;;;;;;;;;;5093193;28;20130;-59
2021/11/09 00:40:12;;;;;;;6.80;1.40;;;;;;;;;;5093454;28;20374;-58
2021/11/09 00:42:38;;;;;;;5.55;1.20;;;;;;;;;;5092919;28;20484;-57
2021/11/09 00:45:05;;;;;;;8.13;1.20;;;;;;;;;;5074255;28;20035;-57
2021/11/09 00:47:31;;;;;;;5.47;1.00;;;;;;;;;;5095151;28;20078;-58
2021/11/09 00:49:57;;;;;;;2.40;0.80;;;;;;;;;;5096741;28;20713;-58
2021/11/09 00:52:23;;;;;;;7.30;1.05;;;;;;;;;;5098877;28;20094;-56
2021/11/09 00:54:49;;;;;;;9.80;1.10;;;;;;;;;;5095207;28;20488;-58
2021/11/09 00:57:15;;;;;;;2.80;0.80;;;;;;;;;;5061392;28;20036;-58
2021/11/09 00:59:40;;;;;;;2.80;1.00;;;;;;;;;;5094529;28;20024;-58
2021/11/09 01:02:07;;;;;;;3.25;1.20;;;;;;;;;;5079522;28;20063;-58
2021/11/09 01:04:33;;;;;;;5.78;1.20;;;;;;;;;;5096627;28;20040;-60
2021/11/09 01:06:59;;;;;;;5.65;1.48;;;;;;;;;;5090200;28;20533;-61
2021/11/09 01:09:25;;;;;;;6.70;1.35;;;;;;;;;;5096405;28;20844;-58
2021/11/09 01:11:52;;;;;;;6.18;1.17;;;;;;;;;;5093650;28;20036;-57
2021/11/09 01:14:19;;;;;;;5.60;1.73;;;;;;;;;;5092067;28;20046;-57
2021/11/09 01:16:45;;;;;;;5.35;1.42;;;;;;;;;;5093690;28;20027;-57
2021/11/09 01:19:16;;;;;;;3.70;1.40;;;;;;;;;;5094984;28;20042;-59
2021/11/09 01:21:43;;;;;;;8.55;1.65;;;;;;;;;;5092723;28;20053;-58
2021/11/09 01:24:10;;;;;;;4.40;1.45;;;;;;;;;;5091699;28;20047;-58
2021/11/09 01:26:37;;;;;;;7.68;1.65;;;;;;;;;;5093036;28;20048;-59
2021/11/09 01:29:04;;;;;;;5.60;1.83;;;;;;;;;;5072402;28;20516;-57
2021/11/09 01:31:30;;;;;;;5.35;1.77;;;;;;;;;;5095765;28;20062;-59
2021/11/09 01:33:55;;;;;;;5.05;1.70;;;;;;;;;;5074497;28;20027;-56
2021/11/09 01:36:22;;;;;;;3.85;1.40;;;;;;;;;;5091796;28;20563;-58
2021/11/09 01:38:48;;;;;;;7.03;1.88;;;;;;;;;;5094078;28;20528;-57
2021/11/09 01:41:14;;;;;;;6.75;2.00;;;;;;;;;;5095786;28;20135;-58
2021/11/09 01:43:41;;;;;;;5.35;2.00;;;;;;;;;;5090935;28;20059;-58
2021/11/09 01:46:07;;;;;;;13.40;2.45;;;;;;;;;;5095478;28;20504;-58
2021/11/09 01:48:33;;;;;;;4.30;1.77;;;;;;;;;;5094597;28;20697;-59
2021/11/09 01:51:01;;;;;;;10.32;2.45;;;;;;;;;;5098378;28;20039;-58
2021/11/09 01:53:28;;;;;;;10.30;2.10;;;;;;;;;;5094564;28;20039;-58
2021/11/09 01:55:55;;;;;;;6.25;1.90;;;;;;;;;;5088935;28;20039;-58
2021/11/09 01:58:21;;;;;;;5.90;1.90;;;;;;;;;;5091362;28;20040;-59
2021/11/09 02:00:50;;;;;;;5.65;2.00;;;;;;;;;;5092209;28;20058;-59
2021/11/09 02:03:17;;;;;;;9.85;1.85;;;;;;;;;;5093040;28;20538;-60
2021/11/09 02:05:43;;;;;;;4.57;1.67;;;;;;;;;;5091514;28;20047;-59
2021/11/09 02:08:09;;;;;;;5.88;1.58;;;;;;;;;;5091935;28;20066;-55
2021/11/09 02:10:37;;;;;;;12.63;2.05;;;;;;;;;;5062802;28;20035;-59
2021/11/09 02:13:03;;;;;;;4.18;1.38;;;;;;;;;;5067944;28;20036;-59
2021/11/09 02:15:30;;;;;;;6.78;1.58;;;;;;;;;;5076502;28;20405;-59
2021/11/09 02:17:57;;;;;;;4.20;1.40;;;;;;;;;;5092324;28;20098;-58
2021/11/09 02:20:26;;;;;;;8.32;1.67;;;;;;;;;;5093606;28;20091;-57
2021/11/09 02:22:52;;;;;;;6.82;2.03;;;;;;;;;;5093618;28;20464;-57
2021/11/09 02:25:20;;;;;;;7.18;2.30;;;;;;;;;;5092022;28;20165;-60
2021/11/09 02:27:46;;;;;;;13.48;1.85;;;;;;;;;;5092827;28;20062;-59
2021/11/09 02:30:14;;;;;;;4.63;1.60;;;;;;;;;;5091072;28;20035;-58
2021/11/09 02:32:41;;;;;;;7.68;2.08;;;;;;;;;;5091741;28;20506;-58
2021/11/09 02:35:07;;;;;;;5.65;1.88;;;;;;;;;;5092217;28;20080;-57
2021/11/09 02:37:33;;;;;;;11.65;2.08;;;;;;;;;;5045580;28;20404;-57
2021/11/09 02:39:59;;;;;;;5.10;1.90;;;;;;;;;;5090311;28;20036;-57
2021/11/09 02:42:31;;;;;;;6.50;2.08;;;;;;;;;;5074360;28;20036;-59
2021/11/09 02:45:09;;;;;;;3.90;1.77;;;;;;;;;;5052336;28;20089;-59
2021/11/09 02:47:48;;;;;;;5.60;2.15;;;;;;;;;;5071023;28;20063;-60
2021/11/09 02:50:14;;;;;;;4.93;2.03;;;;;;;;;;5093437;28;20036;-59
2021/11/09 02:52:49;;;;;;;6.28;2.47;;;;;;;;;;5094685;28;20035;-56
2021/11/09 02:55:17;;;;;;;9.70;2.15;;;;;;;;;;5095724;28;20048;-57
2021/11/09 02:57:57;;;;;;;7.63;2.03;;;;;;;;;;5091187;28;20036;-58
2021/11/09 03:00:32;;;;;;;5.68;2.42;;;;;;;;;;5090103;28;20150;-59
2021/11/09 03:03:06;;;;;;;4.30;1.67;;;;;;;;;;5094715;28;20133;-59
2021/11/09 03:05:47;;;;;;;;;;;;;;;;;;5076486;28;20138;-59
2021/11/09 03:10:49;;;;;;;6.88;2.00;;;;;;;;;;5098623;28;20035;-59
2021/11/09 03:13:15;;;;;;;6.00;2.22;;;;;;;;;;5096092;28;20024;-59
2021/11/09 03:15:41;;;;;;;3.45;1.63;;;;;;;;;;5093090;28;20453;-60
2021/11/09 03:18:11;;;;;;;7.82;1.98;;;;;;;;;;5093579;28;20036;-56
2021/11/09 03:23:00;;;;;;;7.57;1.40;;;;;;;;;;5094151;28;20044;-58
2021/11/09 03:45:26;;;;;;;6.22;1.88;;;;;;;;;;5088838;28;20590;-61
2021/11/09 03:47:55;;;;;;;8.13;2.10;;;;;;;;;;5090994;28;20520;-56
2021/11/09 03:50:26;;;;;;;7.30;2.20;;;;;;;;;;5086877;28;20438;-59
2021/11/09 03:55:35;;;;;;;7.50;2.30;;;;;;;;;;5093402;28;20040;-58
2021/11/09 04:05:43;;;;;;;6.38;1.73;;;;;;;;;;5091559;28;20039;-59
2021/11/09 04:10:58;;;;;;;5.10;1.77;;;;;;;;;;5093547;28;20074;-61
2021/11/09 04:18:47;;;;;;;4.53;1.42;;;;;;;;;;5096932;28;20094;-61
2021/11/09 04:38:20;;;;;;;3.05;1.20;;;;;;;;;;5094374;28;20052;-59
2021/11/09 05:01:10;;;;;;;2.40;0.90;;;;;;;;;;5093867;28;20053;-60
2021/11/09 05:02:02;;;;;;;2.33;0.90;;;;;;;;;;5093165;28;20039;-59
2021/11/09 05:10:08;;;;;;;3.58;1.33;;;;;;;;;;5052584;28;20039;-57
2021/11/09 05:12:34;;;;;;;2.95;1.00;;;;;;;;;;5092378;28;20055;-54
2021/11/09 05:15:00;;;;;;;5.03;1.10;;;;;;;;;;5091806;28;20031;-59
2021/11/09 05:17:26;;;;;;;3.08;1.10;;;;;;;;;;5092340;28;20119;-60
2021/11/09 05:19:56;;;;;;;7.32;0.90;;;;;;;;;;5092932;28;20531;-60
2021/11/09 05:22:21;;;;;;;7.53;1.30;;;;;;;;;;5088480;28;20058;-58
2021/11/09 05:24:47;;;;;;;3.15;0.85;;;;;;;;;;5094153;28;20403;-58
2021/11/09 05:27:17;;;;;;;3.67;1.10;;;;;;;;;;5093364;28;20516;-59
2021/11/09 05:29:44;;;;;;;5.68;1.13;;;;;;;;;;5094184;28;20177;-58
2021/11/09 05:32:10;;;;;;;3.10;1.17;;;;;;;;;;5072203;28;20039;-58
2021/11/09 05:34:36;;;;;;;4.15;1.50;;;;;;;;;;5086435;28;20031;-59
2021/11/09 05:37:03;;;;;;;3.50;1.17;;;;;;;;;;5092483;28;20455;-54
2021/11/09 05:39:34;;;;;;;6.13;1.40;;;;;;;;;;5093709;28;20035;-57
2021/11/09 05:42:01;;;;;;;3.58;1.27;;;;;;;;;;5093375;28;20039;-58
2021/11/09 05:44:29;;;;;;;2.85;0.95;;;;;;;;;;5073167;28;20044;-58
2021/11/09 05:46:55;;;;;;;3.90;1.30;;;;;;;;;;5093271;28;20044;-59
2021/11/09 05:49:22;;;;;;;9.18;1.17;;;;;;;;;;5092054;28;20038;-57
2021/11/09 05:51:48;;;;;;;3.50;1.10;;;;;;;;;;5091602;28;20189;-59
2021/11/09 05:54:14;;;;;;;3.95;1.02;;;;;;;;;;5091920;28;20114;-57
2021/11/09 05:56:40;;;;;;;4.50;1.08;;;;;;;;;;5092477;28;20040;-59
2021/11/09 05:59:05;;;;;;;3.47;0.90;;;;;;;;;;5092048;28;20222;-58
2021/11/09 06:01:31;;;;;;;2.45;0.88;;;;;;;;;;5092189;28;20042;-58
2021/11/09 06:03:57;;;;;;;2.60;1.10;;;;;;;;;;5091737;28;20039;-57
2021/11/09 06:06:23;;;;;;;3.63;1.13;;;;;;;;;;5089880;28;20059;-58
2021/11/09 06:08:50;;;;;;;5.25;1.45;;;;;;;;;;5074457;28;20479;-58
2021/11/09 06:11:19;;;;;;;4.82;1.20;;;;;;;;;;5094355;28;20047;-58
2021/11/09 06:13:45;;;;;;;3.92;1.17;;;;;;;;;;5091742;28;20044;-56
2021/11/09 06:16:11;;;;;;;2.35;0.90;;;;;;;;;;5093728;28;20031;-57
2021/11/09 06:18:37;;;;;;;6.18;1.13;;;;;;;;;;5091978;28;20696;-57
2021/11/09 06:21:03;;;;;;;2.35;0.88;;;;;;;;;;5093029;28;20067;-59
2021/11/09 06:23:29;;;;;;;4.88;1.20;;;;;;;;;;5091449;28;20813;-56
2021/11/09 06:25:55;;;;;;;4.60;1.30;;;;;;;;;;5092191;28;20039;-58
2021/11/09 06:28:21;;;;;;;3.50;0.93;;;;;;;;;;5091083;28;20051;-56
2021/11/09 06:30:48;;;;;;;3.05;1.13;;;;;;;;;;5093404;28;20063;-57
2021/11/09 06:33:15;;;;;;;4.55;1.27;;;;;;;;;;5092322;28;20063;-56
2021/11/09 06:35:41;;;;;;;3.65;1.00;;;;;;;;;;5070068;28;20047;-57
2021/11/09 06:38:07;;;;;;;2.80;0.80;;;;;;;;;;5092413;28;20043;-56
2021/11/09 06:40:33;;;;;;;2.78;0.98;;;;;;;;;;5090318;28;21016;-59
2021/11/09 06:42:59;;;;;;;3.00;1.05;;;;;;;;;;5091123;28;20036;-58
2021/11/09 06:45:25;;;;;;;2.20;0.85;;;;;;;;;;5090972;28;20506;-59
2021/11/09 06:47:52;;;;;;;2.92;1.08;;;;;;;;;;5087555;28;20512;-59
2021/11/09 06:50:19;;;;;;;3.83;1.10;;;;;;;;;;5088987;28;20057;-57
2021/11/09 06:52:45;;;;;;;2.60;0.90;;;;;;;;;;5071234;28;20062;-55
2021/11/09 06:55:10;;;;;;;3.33;1.02;;;;;;;;;;5093744;28;20957;-57
2021/11/09 06:57:37;;;;;;;3.65;0.93;;;;;;;;;;5094517;28;20042;-57
2021/11/09 07:00:07;;;;;;;2.88;1.10;;;;;;;;;;5093377;28;20044;-57
2021/11/09 07:02:37;;;;;;;3.00;1.00;;;;;;;;;;5093324;28;20036;-58
2021/11/09 07:05:03;;;;;;;2.92;1.00;;;;;;;;;;5094563;28;20040;-58
2021/11/09 07:07:29;;;;;;;2.55;0.90;;;;;;;;;;5093524;28;20052;-54
2021/11/09 07:09:54;;;;;;;3.35;1.30;;;;;;;;;;5095343;28;20059;-58
2021/11/09 07:12:21;;;;;;;3.15;1.30;;;;;;;;;;5091333;28;20527;-56
2021/11/09 07:14:46;;;;;;;2.80;0.85;;;;;;;;;;5087290;28;20103;-56
2021/11/09 07:17:12;;;;;;;2.45;0.98;;;;;;;;;;5094015;28;20037;-58
2021/11/09 07:19:40;;;;;;;2.97;1.08;;;;;;;;;;5093575;28;20055;-58
2021/11/09 07:22:06;;;;;;;12.07;1.52;;;;;;;;;;5076712;28;20511;-60
2021/11/09 07:24:32;;;;;;;4.78;1.60;;;;;;;;;;5088481;28;20050;-59
2021/11/09 07:26:58;;;;;;;4.15;1.40;;;;;;;;;;5094036;28;20757;-59
2021/11/09 07:29:24;;;;;;;2.65;1.02;;;;;;;;;;5092122;28;20059;-57
2021/11/09 07:31:53;;;;;;;4.53;1.40;;;;;;;;;;5091410;28;20101;-58
2021/11/09 07:34:19;;;;;;;3.10;1.13;;;;;;;;;;5084866;28;20130;-59
2021/11/09 07:36:45;;;;;;;3.58;1.48;;;;;;;;;;5092581;28;20031;-59
2021/11/09 07:39:12;;;;;;;6.88;1.60;;;;;;;;;;5090873;28;20050;-58
2021/11/09 07:41:39;;;;;;;5.43;1.52;;;;;;;;;;5073959;28;20086;-58
2021/11/09 07:44:07;;;;;;;3.15;1.20;;;;;;;;;;5093247;28;20511;-59
2021/11/09 07:46:34;;;;;;;5.32;1.35;;;;;;;;;;5095387;28;20082;-60
2021/11/09 07:49:00;;;;;;;3.67;1.40;;;;;;;;;;5095562;28;20089;-59
2021/11/09 07:51:27;;;;;;;4.38;1.67;;;;;;;;;;5095953;28;20079;-58
2021/11/09 07:53:54;;;;;;;3.63;1.55;;;;;;;;;;5096480;28;20633;-57
2021/11/09 07:56:22;;;;;;;4.03;1.20;;;;;;;;;;5094967;28;20115;-59
2021/11/09 08:01:37;;;;;;;4.28;1.80;;;;;;;;;;5095777;28;20055;-59
2021/11/09 08:04:16;;;;;;;5.82;1.83;;;;;;;;;;5095803;28;20059;-57
2021/11/09 08:11:44;;;;;;;3.85;1.33;;;;;;;;;;5097167;28;20046;-56
2021/11/09 08:14:11;;;;;;;3.10;1.40;;;;;;;;;;5098898;28;20042;-60
2021/11/09 08:16:37;;;;;;;3.25;1.30;;;;;;;;;;5099422;28;20105;-57
2021/11/09 08:19:03;;;;;;;6.15;1.35;;;;;;;;;;5097634;28;20062;-57
2021/11/09 08:21:29;;;;;;;2.65;1.08;;;;;;;;;;5097498;28;20472;-58
2021/11/09 08:23:55;;;;;;;3.58;1.58;;;;;;;;;;5094423;28;20480;-63
2021/11/09 08:26:22;;;;;;;3.50;1.27;;;;;;;;;;5098552;28;20055;-59
2021/11/09 08:28:48;;;;;;;3.22;1.20;;;;;;;;;;5099819;28;20064;-58
2021/11/09 08:31:17;;;;;;;4.85;1.45;;;;;;;;;;5095082;28;20430;-55
2021/11/09 08:33:43;;;;;;;2.50;1.00;;;;;;;;;;5097499;28;20047;-55
2021/11/09 08:36:14;;;;;;;6.68;1.58;;;;;;;;;;5100074;28;20032;-58
2021/11/09 08:38:40;;;;;;;4.32;1.35;;;;;;;;;;5101803;28;20064;-58
2021/11/09 08:41:06;;;;;;;3.47;1.20;;;;;;;;;;5102295;28;20099;-55
2021/11/09 08:43:36;;;;;;;3.22;1.17;;;;;;;;;;5097519;28;20055;-59
2021/11/09 08:48:42;;;;;;;3.47;1.30;;;;;;;;;;5095828;28;20516;-59
2021/11/09 08:51:11;;;;;;;3.00;1.33;;;;;;;;;;5097380;28;20036;-59
2021/11/09 09:04:28;;;;;;;3.95;1.42;;;;;;;;;;5069674;28;21794;-58
2021/11/09 09:06:55;;;;;;;5.75;1.70;;;;;;;;;;5096571;28;20420;-56
2021/11/09 09:09:21;;;;;;;3.45;1.30;;;;;;;;;;5095602;28;20038;-58
2021/11/09 09:11:48;;;;;;;2.92;1.25;;;;;;;;;;5095200;28;20040;-54
2021/11/09 09:14:14;;;;;;;4.78;1.55;;;;;;;;;;5075677;28;20091;-58
2021/11/09 09:16:45;;;;;;;5.05;1.33;;;;;;;;;;5093305;28;20059;-58
2021/11/09 09:19:11;;;;;;;3.60;1.52;;;;;;;;;;5093917;28;20047;-57
2021/11/09 09:22:01;;;;;;;4.13;1.52;;;;;;;;;;5094208;28;20951;-59
2021/11/09 09:24:33;;;;;;;4.03;1.60;;;;;;;;;;5089964;28;20420;-57
2021/11/09 09:29:45;;;;;;;5.57;1.50;;;;;;;;;;5092677;28;20039;-57
2021/11/09 09:57:09;;;;;;;3.72;1.80;;;;;;;;;;4980469;28;21257;-58
2021/11/09 09:59:36;;;;;;;4.53;1.52;;;;;;;;;;5020045;28;20131;-55
2021/11/09 10:02:06;;;;;;;4.43;1.52;;;;;;;;;;5092494;28;20449;-56
2021/11/09 10:04:41;;;;;;;4.55;1.65;;;;;;;;;;5071502;28;20079;-55
2021/11/09 10:07:13;;;;;;;5.78;1.83;;;;;;;;;;5091816;28;20105;-59
2021/11/09 10:09:46;;;;;;;6.25;1.60;;;;;;;;;;5092150;28;20032;-57
2021/11/09 10:12:14;;;;;;;3.42;1.52;;;;;;;;;;5093278;28;20054;-58
2021/11/09 10:14:40;;;;;;;4.28;1.85;;;;;;;;;;5086553;28;20066;-58
2021/11/09 10:17:12;;;;;;;3.83;1.63;;;;;;;;;;5092678;28;20063;-55
2021/11/09 10:19:45;;;;;;;5.25;1.88;;;;;;;;;;5073943;28;20054;-57
2021/11/09 10:22:22;;;;;;;3.80;1.73;;;;;;;;;;5088437;28;20032;-57
2021/11/09 10:24:58;;;;;;;5.05;1.95;;;;;;;;;;5048994;28;20063;-56
2021/11/09 10:27:26;;;;;;;4.07;1.70;;;;;;;;;;5072424;28;20050;-56
2021/11/09 10:29:56;;;;;;;4.57;1.63;;;;;;;;;;5072032;28;20603;-56
2021/11/09 10:32:29;;;;;;;8.60;2.03;;;;;;;;;;5054984;28;20036;-57
2021/11/09 10:34:59;;;;;;;2.97;1.48;;;;;;;;;;5073187;28;20044;-54
2021/11/09 10:37:30;;;;;;;4.22;1.60;;;;;;;;;;5069828;28;20064;-58
2021/11/09 10:40:00;;;;;;;5.32;1.60;;;;;;;;;;5069888;28;20153;-59
2021/11/09 10:42:27;;;;;;;4.50;1.65;;;;;;;;;;5067797;28;20096;-58
2021/11/09 10:44:57;;;;;;;4.57;1.45;;;;;;;;;;5068373;28;20040;-53
2021/11/09 10:47:41;;;;;;;3.55;1.45;;;;;;;;;;5058192;28;20049;-56
2021/11/09 10:50:09;;;;;;;5.80;2.10;;;;;;;;;;5059821;28;20048;-57
2021/11/09 10:52:44;;;;;;;4.53;1.73;;;;;;;;;;5066664;28;20568;-57
2021/11/09 10:55:19;;;;;;;3.70;1.67;;;;;;;;;;5067645;28;20032;-56
2021/11/09 11:06:15;;;;;;;3.90;1.50;;;;;;;;;;5091765;28;20046;-58
2021/11/09 11:08:44;;;;;;;3.67;1.65;;;;;;;;;;5091939;28;20068;-56
2021/11/09 11:11:24;;;;;;;6.97;2.08;;;;;;;;;;5097975;28;20047;-57
2021/11/09 11:13:54;;;;;;;4.13;1.92;;;;;;;;;;5058640;28;20539;-55
2021/11/09 11:16:21;;;;;;;5.30;1.90;;;;;;;;;;5089095;28;20036;-56
2021/11/09 11:18:56;;;;;;;3.83;1.80;;;;;;;;;;5090313;28;20111;-58
2021/11/09 11:21:23;;;;;;;4.07;2.00;;;;;;;;;;5086132;28;20067;-57
2021/11/09 11:23:55;;;;;;;4.35;1.60;;;;;;;;;;5077491;28;20038;-58
2021/11/09 11:26:22;;;;;;;4.75;1.85;;;;;;;;;;5082713;28;20043;-58
2021/11/09 11:28:54;;;;;;;5.78;1.90;;;;;;;;;;5067994;28;20056;-58
2021/11/09 11:31:21;;;;;;;3.25;1.35;;;;;;;;;;5093365;28;20035;-58
2021/11/09 11:33:48;;;;;;;8.32;1.77;;;;;;;;;;5098087;28;20031;-57
2021/11/09 11:36:24;;;;;;;5.82;2.10;;;;;;;;;;5094736;28;20059;-56
2021/11/09 11:38:51;;;;;;;3.63;1.70;;;;;;;;;;5094921;28;20115;-55
2021/11/09 11:41:18;;;;;;;5.25;1.98;;;;;;;;;;5095424;28;20575;-57
2021/11/09 11:43:47;;;;;;;4.70;2.10;;;;;;;;;;5095685;28;20067;-58
2021/11/09 11:46:15;;;;;;;5.38;2.05;;;;;;;;;;5095402;28;20456;-59
2021/11/09 11:48:59;;;;;;;6.57;2.42;;;;;;;;;;5077840;28;20032;-57
2021/11/09 11:51:29;;;;;;;4.18;1.73;;;;;;;;;;5092804;28;20043;-58
2021/11/09 11:53:55;;;;;;;5.82;1.98;;;;;;;;;;5096675;28;20104;-58
2021/11/09 11:56:22;;;;;;;10.25;2.17;;;;;;;;;;5077749;28;20147;-57
2021/11/09 11:58:48;;;;;;;4.95;2.30;;;;;;;;;;5077908;28;20051;-59
2021/11/09 12:01:34;;;;;;;4.85;2.10;;;;;;;;;;5076998;28;20047;-55
2021/11/09 12:04:00;;;;;;;5.50;2.03;;;;;;;;;;5077525;28;20035;-57
2021/11/09 12:06:29;;;;;;;8.15;2.20;;;;;;;;;;5095138;28;20112;-57
2021/11/09 12:08:58;;;;;;;4.57;1.90;;;;;;;;;;5096677;28;20046;-58
2021/11/09 12:11:42;;;;;;;4.85;2.00;;;;;;;;;;5086075;28;20031;-55
2021/11/09 12:14:10;;;;;;;5.93;2.17;;;;;;;;;;5069301;28;20050;-55
2021/11/09 12:16:52;;;;;;;7.70;2.05;;;;;;;;;;5090081;28;20044;-57
2021/11/09 12:19:44;;;;;;;5.15;2.17;;;;;;;;;;5093403;28;20068;-55
2021/11/09 12:22:15;;;;;;;5.03;1.60;;;;;;;;;;5093847;28;20044;-58
2021/11/09 12:24:47;;;;;;;5.72;2.15;;;;;;;;;;5093891;28;20428;-58
2021/11/09 12:27:16;;;;;;;3.45;1.52;;;;;;;;;;5100953;28;20621;-56
2021/11/09 12:30:08;;;;;;;4.82;1.73;;;;;;;;;;5079449;28;20032;-57
2021/11/09 12:32:35;;;;;;;4.57;1.88;;;;;;;;;;5080308;28;20086;-54
2021/11/09 12:35:14;;;;;;;4.95;1.88;;;;;;;;;;5077454;28;20035;-57
2021/11/09 12:37:45;;;;;;;4.63;1.60;;;;;;;;;;5079263;28;20028;-58
2021/11/09 12:40:24;;;;;;;4.93;1.75;;;;;;;;;;5097574;28;20043;-58
2021/11/09 12:43:09;;;;;;;9.23;2.03;;;;;;;;;;5070610;28;20032;-59
2021/11/09 12:45:37;;;;;;;6.30;1.77;;;;;;;;;;5095834;28;20035;-56
2021/11/09 12:48:04;;;;;;;4.65;1.80;;;;;;;;;;5096063;28;20062;-58
2021/11/09 12:50:31;;;;;;;4.50;1.70;;;;;;;;;;5073262;28;20036;-58
2021/11/09 12:53:07;;;;;;;3.40;1.50;;;;;;;;;;5077354;28;21415;-55
2021/11/09 12:55:34;;;;;;;4.18;1.70;;;;;;;;;;5078526;28;20036;-56
2021/11/09 12:58:20;;;;;;;5.63;2.03;;;;;;;;;;5095791;28;20084;-58
2021/11/09 13:01:04;;;;;;;3.67;1.58;;;;;;;;;;5077314;28;20047;-56
2021/11/09 13:03:39;;;;;;;;;;;;;;;;;;5075488;28;20043;-57
2021/11/09 13:06:16;;;;;;;3.25;1.48;;;;;;;;;;5096376;28;19916;-56
2021/11/09 13:09:07;;;;;;;3.58;1.70;;;;;;;;;;5098734;28;20051;-55
2021/11/09 13:11:42;;;;;;;5.13;1.88;;;;;;;;;;5057474;28;20132;-56
2021/11/09 13:14:09;;;;;;;4.68;1.80;;;;;;;;;;5099007;28;20043;-55
2021/11/09 13:16:44;;;;;;;6.70;2.05;;;;;;;;;;5055927;28;20051;-55
2021/11/09 13:19:10;;;;;;;4.28;1.73;;;;;;;;;;5072049;28;20262;-57
2021/11/09 13:21:38;;;;;;;5.20;2.13;;;;;;;;;;5076752;28;20400;-59
2021/11/09 13:24:05;;;;;;;5.03;1.92;;;;;;;;;;5094131;28;20062;-58
2021/11/09 13:26:31;;;;;;;5.03;1.90;;;;;;;;;;5090138;28;20380;-58
2021/11/09 13:29:03;;;;;;;4.22;1.73;;;;;;;;;;5098240;28;20308;-54
2021/11/09 13:31:30;;;;;;;4.43;1.83;;;;;;;;;;5093491;28;20075;-58
2021/11/09 13:33:57;;;;;;;3.72;1.77;;;;;;;;;;5093980;28;20036;-60
2021/11/09 13:36:23;;;;;;;3.88;1.65;;;;;;;;;;5073271;28;20396;-56
2021/11/09 13:38:49;;;;;;;5.55;2.00;;;;;;;;;;5096858;28;20036;-57
2021/11/09 13:41:20;;;;;;;6.00;1.90;;;;;;;;;;5094709;28;20034;-58
2021/11/09 13:43:50;;;;;;;4.13;1.95;;;;;;;;;;5095594;28;20040;-57
2021/11/09 13:46:21;;;;;;;5.22;2.00;;;;;;;;;;5076907;28;20074;-58
2021/11/09 13:48:51;;;;;;;8.10;1.85;;;;;;;;;;5095741;28;20071;-57
2021/11/09 13:51:21;;;;;;;5.20;1.90;;;;;;;;;;5077352;28;20114;-58
2021/11/09 13:53:49;;;;;;;10.10;1.98;;;;;;;;;;5096851;28;20036;-58
2021/11/09 13:56:17;;;;;;;3.13;1.40;;;;;;;;;;5096551;28;20058;-57
2021/11/09 13:58:59;;;;;;;5.22;2.08;;;;;;;;;;5077371;28;20040;-59
2021/11/09 14:01:34;;;;;;;4.55;1.95;;;;;;;;;;5070975;28;20772;-58
2021/11/09 14:04:06;;;;;;;5.63;1.85;;;;;;;;;;5088398;28;20567;-58
2021/11/09 14:09:18;;;;;;;4.53;1.90;;;;;;;;;;5092964;28;20032;-57
2021/11/09 14:12:15;;;;;;;6.43;1.90;;;;;;;;;;5067392;28;20031;-58
2021/11/09 14:15:39;;;;;;;5.47;2.10;;;;;;;;;;5073113;28;21071;-59
2021/11/09 14:17:36;;;;;;;4.05;1.48;;;;;;;;;;5089129;28;20036;-57
2021/11/09 14:20:14;;;;;;;4.32;1.73;;;;;;;;;;5091571;28;20040;-57
2021/11/09 14:22:41;;;;;;;6.47;2.30;;;;;;;;;;5089262;28;20035;-59
2021/11/09 14:25:12;;;;;;;5.13;2.00;;;;;;;;;;5086790;28;20046;-56
2021/11/09 14:27:46;;;;;;;5.45;2.60;;;;;;;;;;5072449;28;20060;-56
2021/11/09 14:30:18;;;;;;;5.35;2.00;;;;;;;;;;5088343;28;20090;-57
2021/11/09 14:32:44;;;;;;;14.10;2.17;;;;;;;;;;5069696;28;20570;-56
2021/11/09 14:37:59;;;;;;;6.35;2.15;;;;;;;;;;5088623;28;20484;-58
2021/11/09 14:40:52;;;;;;;3.95;1.88;;;;;;;;;;5079975;28;20040;-55
2021/11/09 14:43:27;;;;;;;3.53;1.50;;;;;;;;;;5091276;28;20134;-59
2021/11/09 14:46:12;;;;;;;5.85;2.22;;;;;;;;;;5074216;28;20032;-59
2021/11/09 14:51:21;;;;;;;5.07;1.85;;;;;;;;;;5094628;28;20035;-56
2021/11/09 14:56:22;;;;;;;5.05;2.00;;;;;;;;;;5075187;28;20522;-57
2021/11/09 14:58:55;;;;;;;8.45;1.90;;;;;;;;;;5070292;28;20044;-57
2021/11/09 15:01:41;;;;;;;4.10;1.80;;;;;;;;;;5092011;28;20034;-59
2021/11/09 15:04:12;;;;;;;5.30;2.10;;;;;;;;;;5090540;28;20059;-59
2021/11/09 15:09:20;;;;;;;3.97;1.73;;;;;;;;;;5092497;28;20572;-59
2021/11/09 15:25:37;;;;;;;4.70;1.90;;;;;;;;;;5079673;28;19927;-55
2021/11/09 15:28:16;;;;;;;4.00;1.60;;;;;;;;;;5076447;28;20055;-59
2021/11/09 15:30:53;;;;;;;7.68;1.77;;;;;;;;;;5069862;28;20043;-59
2021/11/09 15:33:23;;;;;;;8.65;1.90;;;;;;;;;;5088847;28;20574;-57
2021/11/09 15:38:21;;;;;;;6.70;1.90;;;;;;;;;;5092520;28;20059;-57
2021/11/09 15:40:51;;;;;;;6.22;1.90;;;;;;;;;;5081811;28;20044;-56
2021/11/09 15:43:16;;;;;;;7.22;1.98;;;;;;;;;;5063851;28;20159;-56
2021/11/09 15:45:42;;;;;;;4.57;1.63;;;;;;;;;;5073827;28;20036;-57
2021/11/09 15:48:10;;;;;;;6.32;2.00;;;;;;;;;;5093055;28;20127;-55
2021/11/09 15:50:38;;;;;;;4.93;2.05;;;;;;;;;;5076775;28;20120;-58
2021/11/09 15:53:08;;;;;;;4.65;2.20;;;;;;;;;;5090116;28;20511;-57
2021/11/09 15:55:34;;;;;;;5.55;1.88;;;;;;;;;;5072816;28;20039;-57
2021/11/09 15:58:00;;;;;;;4.55;1.90;;;;;;;;;;5089442;28;20459;-57
2021/11/09 16:00:26;;;;;;;6.35;1.75;;;;;;;;;;5092223;28;20063;-58
2021/11/09 16:02:52;;;;;;;7.15;2.13;;;;;;;;;;5091513;28;20137;-58
2021/11/09 16:05:19;;;;;;;3.88;1.75;;;;;;;;;;5074441;28;20039;-58
2021/11/09 16:07:45;;;;;;;4.50;2.00;;;;;;;;;;5095496;28;20048;-57
2021/11/09 16:10:17;;;;;;;5.30;1.90;;;;;;;;;;5097010;28;20040;-58
2021/11/09 16:12:43;;;;;;;6.32;1.95;;;;;;;;;;5013417;28;20044;-55
2021/11/09 16:15:09;;;;;;;6.72;1.98;;;;;;;;;;5009897;28;20112;-56
2021/11/09 16:17:39;;;;;;;5.30;1.58;;;;;;;;;;5008746;28;20128;-57
2021/11/09 16:20:07;;;;;;;9.48;2.00;;;;;;;;;;5010759;28;20033;-59
2021/11/09 16:22:34;;;;;;;5.18;1.80;;;;;;;;;;5008213;28;20718;-58
2021/11/09 16:25:00;;;;;;;7.85;1.40;;;;;;;;;;4998550;28;20038;-57
2021/11/09 16:27:27;;;;;;;4.07;1.80;;;;;;;;;;4992108;28;20041;-55
2021/11/09 16:29:56;;;;;;;6.63;1.92;;;;;;;;;;5011318;28;20483;-59
2021/11/09 16:32:22;;;;;;;4.18;1.55;;;;;;;;;;5011321;28;20045;-56
2021/11/09 16:34:50;;;;;;;3.75;1.48;;;;;;;;;;5001016;28;20655;-56
2021/11/09 16:37:17;;;;;;;3.20;1.35;;;;;;;;;;5006835;28;20080;-58
2021/11/09 16:42:18;;;;;;;3.72;1.60;;;;;;;;;;5008472;28;20172;-59
2021/11/09 16:44:44;;;;;;;3.80;1.50;;;;;;;;;;5016049;28;20125;-54
2021/11/09 16:47:10;;;;;;;5.85;1.40;;;;;;;;;;4977319;28;20407;-59
2021/11/09 16:49:55;;;;;;;4.45;1.73;;;;;;;;;;5026865;28;20036;-57
2021/11/09 16:52:28;;;;;;;8.02;1.85;;;;;;;;;;5061443;28;20036;-59
2021/11/09 18:14:43;;;;;;;3.75;1.30;;;;;;;;;;5069927;28;20043;-59
2021/11/09 18:20:07;;;;;;;4.88;1.75;;;;;;;;;;5070163;28;20071;-58
2021/11/09 18:22:34;;;;;;;4.35;1.77;;;;;;;;;;5051819;28;20058;-57
2021/11/09 18:25:01;;;;;;;6.68;2.03;;;;;;;;;;5070448;28;20404;-59
2021/11/09 18:27:27;;;;;;;3.30;1.38;;;;;;;;;;5071610;28;20045;-58
2021/11/09 18:29:53;;;;;;;3.53;1.40;;;;;;;;;;5057808;28;20401;-59
2021/11/09 18:32:20;;;;;;;6.13;1.77;;;;;;;;;;5063960;28;20132;-58
2021/11/09 18:34:46;;;;;;;4.40;1.70;;;;;;;;;;5084724;28;20048;-55
2021/11/09 18:37:14;;;;;;;7.63;1.52;;;;;;;;;;5069196;28;20041;-60
2021/11/09 18:39:41;;;;;;;4.13;1.75;;;;;;;;;;5070877;28;20105;-58
2021/11/09 18:42:08;;;;;;;10.32;2.03;;;;;;;;;;5051175;28;20044;-58
2021/11/09 18:44:40;;;;;;;7.30;1.85;;;;;;;;;;5064864;28;20052;-59
2021/11/09 18:47:15;;;;;;;3.05;1.10;;;;;;;;;;5077578;28;20048;-58
2021/11/09 18:49:41;;;;;;;3.80;1.45;;;;;;;;;;5061177;28;20059;-57
2021/11/09 18:52:11;;;;;;;6.00;1.50;;;;;;;;;;5071517;28;20043;-60
2021/11/09 18:54:59;;;;;;;4.93;1.95;;;;;;;;;;5006060;28;20619;-55
2021/11/09 18:57:24;;;;;;;3.55;1.67;;;;;;;;;;5014342;28;20038;-54
2021/11/09 18:59:58;;;;;;;4.55;1.38;;;;;;;;;;5019134;28;20115;-59
2021/11/09 19:02:28;;;;;;;5.88;1.48;;;;;;;;;;5043915;28;20946;-59
2021/11/09 19:04:55;;;;;;;4.28;1.63;;;;;;;;;;5024408;28;20036;-59
2021/11/09 19:07:21;;;;;;;3.95;1.63;;;;;;;;;;5034353;28;20239;-61
2021/11/09 19:09:47;;;;;;;5.65;1.60;;;;;;;;;;5046314;28;20470;-60
2021/11/09 19:12:15;;;;;;;8.57;1.70;;;;;;;;;;5037654;28;20195;-66